createdAt,value
2019-03-16T00:01:56.251Z,4.30
2019-03-16T00:04:21.842Z,4.93
2019-03-16T00:06:57.181Z,5.43
2019-03-16T00:09:32.876Z,4.13
2019-03-16T00:12:07.733Z,4.77
2019-03-16T00:14:43.347Z,3.97
2019-03-16T00:17:23.048Z,3.83
2019-03-16T00:19:54.661Z,3.73
2019-03-16T00:22:30.911Z,3.77
2019-03-16T00:25:08.083Z,3.23
2019-03-16T00:27:43.195Z,3.20
2019-03-16T00:30:18.432Z,4.10
2019-03-16T00:32:54.235Z,3.50
2019-03-16T00:35:27.833Z,3.67
2019-03-16T00:38:02.011Z,3.83
2019-03-16T00:40:37.872Z,4.10
2019-03-16T00:43:11.110Z,3.77
2019-03-16T00:45:47.293Z,3.60
2019-03-16T00:48:26.410Z,3.90
2019-03-16T00:51:02.661Z,3.60
2019-03-16T00:53:35.977Z,3.60
2019-03-16T00:56:13.188Z,3.57
2019-03-16T00:58:48.632Z,4.67
2019-03-16T01:01:24.559Z,6.13
2019-03-16T01:04:01.322Z,5.07
2019-03-16T01:06:36.243Z,5.50
2019-03-16T01:09:13.934Z,4.20
2019-03-16T01:11:49.761Z,4.67
2019-03-16T01:14:23.733Z,4.10
2019-03-16T01:16:58.648Z,4.37
2019-03-16T01:19:33.542Z,3.60
2019-03-16T01:22:06.798Z,4.07
2019-03-16T01:24:40.432Z,4.50
2019-03-16T01:27:14.497Z,3.63
2019-03-16T01:29:50.639Z,4.47
2019-03-16T01:32:25.463Z,4.30
2019-03-16T01:34:59.300Z,3.97
2019-03-16T01:37:32.319Z,3.53
2019-03-16T01:40:08.216Z,4.27
2019-03-16T01:42:41.344Z,3.20
2019-03-16T01:45:17.689Z,3.77
2019-03-16T01:47:54.711Z,3.47
2019-03-16T01:50:29.127Z,3.93
2019-03-16T01:53:05.116Z,3.87
2019-03-16T01:55:40.543Z,4.17
2019-03-16T01:58:15.664Z,3.43
2019-03-16T02:00:50.726Z,4.13
2019-03-16T02:03:27.413Z,3.87
2019-03-16T02:06:00.330Z,3.53
2019-03-16T02:08:34.709Z,4.30
2019-03-16T02:11:10.130Z,3.80
2019-03-16T02:13:43.829Z,3.50
2019-03-16T02:16:18.911Z,3.57
2019-03-16T02:18:53.465Z,3.57
2019-03-16T02:21:36.331Z,3.67
2019-03-16T02:24:10.817Z,4.43
2019-03-16T02:26:44.235Z,3.93
2019-03-16T02:29:17.867Z,4.13
2019-03-16T02:31:56.401Z,4.17
2019-03-16T02:34:30.270Z,4.93
2019-03-16T02:37:04.456Z,4.07
2019-03-16T02:39:40.650Z,5.00
2019-03-16T02:42:14.747Z,4.50
2019-03-16T02:44:49.661Z,5.27
2019-03-16T02:47:23.218Z,5.27
2019-03-16T02:49:56.189Z,5.17
2019-03-16T02:52:27.946Z,6.30
2019-03-16T02:54:59.979Z,5.30
2019-03-16T02:57:31.805Z,6.23
2019-03-16T03:00:03.520Z,6.17
2019-03-16T03:02:35.604Z,6.00
2019-03-16T03:05:08.704Z,5.87
2019-03-16T03:07:41.062Z,6.03
2019-03-16T03:10:13.157Z,6.27
2019-03-16T03:12:45.161Z,5.53
2019-03-16T03:15:16.708Z,5.70
2019-03-16T03:17:48.715Z,6.20
2019-03-16T03:20:20.879Z,5.27
2019-03-16T03:22:52.875Z,6.40
2019-03-16T03:25:24.835Z,6.10
2019-03-16T03:27:56.790Z,6.60
2019-03-16T03:30:28.678Z,6.17
2019-03-16T03:33:00.340Z,6.47
2019-03-16T03:35:32.144Z,6.17
2019-03-16T03:38:03.931Z,7.07
2019-03-16T03:40:36.145Z,6.67
2019-03-16T03:43:08.135Z,7.00
2019-03-16T03:45:39.742Z,6.87
2019-03-16T03:48:12.117Z,6.73
2019-03-16T03:50:43.992Z,7.67
2019-03-16T03:53:15.887Z,7.10
2019-03-16T03:55:47.612Z,7.17
2019-03-16T03:58:19.785Z,6.23
2019-03-16T04:00:52.133Z,7.00
2019-03-16T04:03:31.506Z,7.30
2019-03-16T04:06:03.420Z,7.53
2019-03-16T04:08:35.483Z,6.07
2019-03-16T04:11:07.788Z,6.97
2019-03-16T04:13:39.516Z,8.00
2019-03-16T04:16:11.130Z,7.23
2019-03-16T04:18:42.970Z,7.37
2019-03-16T04:21:15.387Z,8.00
2019-03-16T04:23:47.455Z,6.30
2019-03-16T04:26:19.234Z,7.93
2019-03-16T04:28:51.073Z,7.73
2019-03-16T04:31:23.280Z,7.13
2019-03-16T04:33:55.025Z,7.57
2019-03-16T04:36:27.064Z,6.90
2019-03-16T04:38:58.654Z,7.07
2019-03-16T04:41:30.266Z,9.07
2019-03-16T04:44:05.181Z,8.10
2019-03-16T04:46:37.336Z,6.97
2019-03-16T04:49:09.148Z,6.93
2019-03-16T04:51:41.083Z,7.03
2019-03-16T04:54:16.004Z,7.20
2019-03-16T04:56:48.007Z,7.53
2019-03-16T04:59:19.768Z,6.27
2019-03-16T05:01:51.570Z,5.70
2019-03-16T05:04:41.911Z,6.07
2019-03-16T05:07:05.719Z,6.37
2019-03-16T05:09:37.339Z,6.40
2019-03-16T05:12:09.285Z,7.30
2019-03-16T05:14:41.995Z,7.47
2019-03-16T05:17:14.790Z,8.10
2019-03-16T05:19:46.463Z,6.50
2019-03-16T05:22:18.443Z,7.30
2019-03-16T05:24:50.398Z,7.90
2019-03-16T05:27:23.030Z,7.80
2019-03-16T05:29:55.121Z,10.17
2019-03-16T05:32:27.740Z,8.63
2019-03-16T05:35:02.357Z,9.93
2019-03-16T05:37:35.682Z,8.30
2019-03-16T05:40:07.644Z,8.13
2019-03-16T05:42:40.778Z,7.30
2019-03-16T05:45:12.655Z,6.90
2019-03-16T05:47:45.525Z,6.93
2019-03-16T05:50:17.872Z,6.07
2019-03-16T05:52:49.964Z,7.53
2019-03-16T05:55:24.945Z,6.83
2019-03-16T05:57:57.165Z,6.97
2019-03-16T06:00:28.924Z,6.90
2019-03-16T06:03:01.012Z,6.50
2019-03-16T06:05:33.351Z,6.93
2019-03-16T06:08:05.520Z,7.43
2019-03-16T06:10:37.635Z,12.47
2019-03-16T06:13:09.780Z,12.17
2019-03-16T06:15:41.818Z,10.33
2019-03-16T06:18:14.022Z,7.07
2019-03-16T06:20:46.380Z,6.57
2019-03-16T06:23:18.131Z,10.33
2019-03-16T06:25:56.527Z,8.93
2019-03-16T06:28:28.332Z,7.30
2019-03-16T06:31:00.015Z,8.20
2019-03-16T06:33:31.971Z,7.50
2019-03-16T06:36:07.172Z,10.47
2019-03-16T06:38:38.915Z,13.03
2019-03-16T06:41:10.763Z,13.10
2019-03-16T06:43:42.567Z,11.57
2019-03-16T06:46:17.441Z,9.97
2019-03-16T06:48:49.682Z,7.90
2019-03-16T06:51:21.838Z,7.57
2019-03-16T06:53:53.651Z,6.50
2019-03-16T06:56:31.423Z,5.60
2019-03-16T06:59:03.251Z,6.23
2019-03-16T07:01:35.485Z,6.40
2019-03-16T07:04:07.545Z,7.63
2019-03-16T07:06:39.593Z,6.20
2019-03-16T07:09:11.727Z,6.87
2019-03-16T07:11:43.585Z,7.57
2019-03-16T07:14:16.245Z,6.90
2019-03-16T07:17:01.446Z,6.60
2019-03-16T07:19:23.077Z,6.40
2019-03-16T07:21:55.089Z,6.43
2019-03-16T07:24:26.913Z,6.67
2019-03-16T07:26:58.972Z,6.70
2019-03-16T07:29:30.925Z,6.33
2019-03-16T07:32:03.193Z,11.23
2019-03-16T07:34:36.257Z,7.53
2019-03-16T07:37:08.032Z,6.47
2019-03-16T07:39:40.104Z,10.80
2019-03-16T07:42:12.179Z,5.97
2019-03-16T07:44:44.033Z,6.10
2019-03-16T07:47:19.498Z,7.60
2019-03-16T07:49:51.480Z,7.70
2019-03-16T07:52:23.437Z,6.10
2019-03-16T07:54:56.731Z,6.07
2019-03-16T07:57:39.483Z,7.33
2019-03-16T08:00:02.366Z,5.80
2019-03-16T08:02:34.234Z,6.87
2019-03-16T08:05:17.589Z,5.70
2019-03-16T08:07:40.302Z,6.37
2019-03-16T08:10:12.525Z,5.73
2019-03-16T08:12:44.481Z,6.00
2019-03-16T08:15:17.368Z,5.23
2019-03-16T08:17:49.319Z,7.37
2019-03-16T08:20:21.305Z,5.13
2019-03-16T08:22:53.133Z,6.67
2019-03-16T08:25:25.406Z,7.67
2019-03-16T08:28:04.088Z,5.97
2019-03-16T08:30:36.136Z,6.50
2019-03-16T08:33:08.307Z,5.83
2019-03-16T08:35:40.593Z,6.33
2019-03-16T08:38:12.398Z,6.30
2019-03-16T08:40:45.384Z,6.20
2019-03-16T08:43:17.485Z,6.10
2019-03-16T08:45:49.562Z,5.40
2019-03-16T08:48:23.169Z,5.50
2019-03-16T08:50:55.045Z,5.80
2019-03-16T08:53:27.604Z,5.17
2019-03-16T08:55:59.414Z,5.50
2019-03-16T08:58:34.245Z,6.40
2019-03-16T09:01:06.151Z,6.10
2019-03-16T09:03:43.579Z,6.50
2019-03-16T09:06:11.985Z,5.97
2019-03-16T09:08:43.964Z,6.33
2019-03-16T09:11:16.282Z,6.67
2019-03-16T09:13:48.222Z,5.93
2019-03-16T09:16:20.353Z,6.07
2019-03-16T09:18:58.280Z,9.23
2019-03-16T09:21:30.383Z,6.97
2019-03-16T09:24:02.721Z,9.30
2019-03-16T09:26:34.289Z,9.13
2019-03-16T09:29:14.795Z,6.07
2019-03-16T09:31:39.856Z,5.00
2019-03-16T09:34:12.511Z,6.27
2019-03-16T09:36:44.746Z,5.43
2019-03-16T09:39:19.827Z,4.43
2019-03-16T09:41:52.216Z,5.47
2019-03-16T09:44:24.413Z,4.80
2019-03-16T09:46:57.929Z,5.37
2019-03-16T09:49:30.105Z,5.97
2019-03-16T09:52:02.189Z,4.93
2019-03-16T09:54:34.327Z,5.70
2019-03-16T09:57:06.069Z,5.77
2019-03-16T09:59:42.521Z,5.13
2019-03-16T10:02:14.311Z,5.47
2019-03-16T10:04:45.980Z,5.63
2019-03-16T10:07:18.366Z,6.40
2019-03-16T10:09:53.009Z,6.10
2019-03-16T10:12:25.246Z,5.70
2019-03-16T10:15:03.354Z,6.40
2019-03-16T10:17:35.903Z,5.87
2019-03-16T10:20:08.746Z,6.17
2019-03-16T10:22:42.081Z,5.50
2019-03-16T10:25:14.304Z,7.00
2019-03-16T10:27:52.267Z,6.30
2019-03-16T10:30:24.177Z,6.10
2019-03-16T10:32:56.483Z,6.10
2019-03-16T10:35:29.055Z,7.03
2019-03-16T10:38:01.149Z,6.80
2019-03-16T10:40:33.760Z,6.93
2019-03-16T10:43:05.905Z,7.33
2019-03-16T10:45:39.329Z,6.67
2019-03-16T10:48:11.185Z,6.30
2019-03-16T10:50:43.424Z,6.63
2019-03-16T10:53:15.112Z,6.17
2019-03-16T10:55:47.746Z,6.43
2019-03-16T10:58:20.111Z,6.57
2019-03-16T11:00:52.124Z,10.10
2019-03-16T11:03:24.080Z,6.73
2019-03-16T11:05:56.064Z,7.43
2019-03-16T11:08:28.336Z,7.40
2019-03-16T11:11:00.008Z,6.60
2019-03-16T11:13:32.568Z,6.97
2019-03-16T11:16:04.781Z,7.20
2019-03-16T11:18:37.013Z,5.33
2019-03-16T11:21:09.459Z,6.27
2019-03-16T11:23:43.629Z,5.77
2019-03-16T11:26:16.244Z,5.20
2019-03-16T11:28:48.809Z,5.20
2019-03-16T11:31:22.861Z,4.60
2019-03-16T11:33:55.913Z,5.13
2019-03-16T11:36:28.628Z,4.70
2019-03-16T11:39:00.770Z,4.10
2019-03-16T11:41:32.881Z,4.80
2019-03-16T11:44:04.759Z,4.20
2019-03-16T11:46:37.137Z,5.07
2019-03-16T11:49:09.015Z,5.93
2019-03-16T11:51:41.166Z,4.97
2019-03-16T11:54:13.049Z,5.63
2019-03-16T11:56:45.347Z,5.20
2019-03-16T11:59:21.889Z,4.83
2019-03-16T12:01:51.333Z,4.90
2019-03-16T12:04:24.010Z,5.43
2019-03-16T12:06:55.708Z,5.37
2019-03-16T12:09:27.756Z,4.77
2019-03-16T12:12:02.744Z,5.03
2019-03-16T12:14:35.239Z,4.40
2019-03-16T12:17:07.326Z,4.40
2019-03-16T12:19:39.233Z,3.77
2019-03-16T12:22:10.874Z,4.33
2019-03-16T12:24:43.061Z,4.80
2019-03-16T12:27:14.813Z,4.40
2019-03-16T12:29:46.540Z,5.73
2019-03-16T12:32:21.426Z,4.03
2019-03-16T12:34:53.836Z,4.97
2019-03-16T12:37:26.145Z,7.30
2019-03-16T12:39:58.196Z,6.43
2019-03-16T12:42:33.061Z,5.50
2019-03-16T12:45:05.349Z,4.13
2019-03-16T12:47:37.457Z,7.33
2019-03-16T12:50:09.748Z,5.37
2019-03-16T12:52:42.432Z,5.13
2019-03-16T12:55:14.871Z,4.63
2019-03-16T12:57:48.155Z,4.53
2019-03-16T13:00:20.758Z,4.33
2019-03-16T13:02:52.614Z,5.30
2019-03-16T13:05:24.740Z,4.50
2019-03-16T13:07:56.827Z,4.33
2019-03-16T13:10:28.753Z,3.40
2019-03-16T13:13:02.209Z,3.60
2019-03-16T13:15:34.298Z,4.73
2019-03-16T13:18:06.451Z,5.73
2019-03-16T13:20:38.964Z,6.60
2019-03-16T13:23:16.752Z,5.67
2019-03-16T13:25:49.758Z,5.20
2019-03-16T13:28:21.936Z,6.23
2019-03-16T13:30:54.050Z,5.00
2019-03-16T13:33:26.003Z,5.10
2019-03-16T13:35:58.454Z,3.73
2019-03-16T13:38:31.132Z,4.40
2019-03-16T13:41:03.019Z,4.00
2019-03-16T13:43:38.573Z,4.47
2019-03-16T13:46:11.586Z,4.27
2019-03-16T13:48:43.933Z,4.50
2019-03-16T13:51:15.730Z,4.37
2019-03-16T13:53:48.172Z,6.43
2019-03-16T13:56:20.075Z,4.90
2019-03-16T13:58:52.467Z,4.60
2019-03-16T14:01:24.660Z,4.80
2019-03-16T14:03:59.703Z,5.83
2019-03-16T14:06:32.015Z,4.83
2019-03-16T14:09:07.431Z,3.50
2019-03-16T14:11:41.376Z,4.50
2019-03-16T14:14:13.587Z,4.70
2019-03-16T14:16:46.088Z,5.73
2019-03-16T14:19:18.070Z,4.73
2019-03-16T14:21:50.137Z,4.50
2019-03-16T14:24:22.212Z,5.43
2019-03-16T14:26:54.133Z,4.67
2019-03-16T14:29:26.024Z,4.60
2019-03-16T14:31:58.194Z,5.37
2019-03-16T14:34:30.080Z,4.37
2019-03-16T14:37:01.925Z,4.23
2019-03-16T14:39:33.892Z,4.57
2019-03-16T14:42:05.902Z,4.97
2019-03-16T14:44:38.194Z,4.03
2019-03-16T14:47:10.602Z,4.40
2019-03-16T14:49:43.159Z,4.43
2019-03-16T14:52:15.432Z,5.13
2019-03-16T14:54:54.191Z,5.93
2019-03-16T14:57:26.955Z,4.37
2019-03-16T14:59:59.611Z,5.50
2019-03-16T15:02:35.002Z,5.03
2019-03-16T15:05:07.738Z,5.03
2019-03-16T15:07:39.719Z,4.30
2019-03-16T15:10:11.836Z,4.93
2019-03-16T15:12:44.029Z,4.03
2019-03-16T15:15:16.798Z,4.40
2019-03-16T15:17:48.866Z,4.47
2019-03-16T15:20:20.972Z,4.83
2019-03-16T15:22:53.647Z,4.10
2019-03-16T15:25:25.842Z,4.60
2019-03-16T15:27:57.564Z,4.63
2019-03-16T15:30:29.937Z,4.10
2019-03-16T15:33:02.569Z,5.17
2019-03-16T15:35:35.107Z,5.90
2019-03-16T15:38:07.636Z,4.40
2019-03-16T15:40:40.121Z,5.27
2019-03-16T15:43:12.471Z,5.30
2019-03-16T15:45:44.671Z,3.70
2019-03-16T15:48:16.637Z,4.50
2019-03-16T15:50:48.732Z,3.97
2019-03-16T15:53:20.881Z,4.03
2019-03-16T15:55:55.782Z,4.00
2019-03-16T15:58:28.696Z,4.27
2019-03-16T16:01:03.736Z,4.03
2019-03-16T16:03:34.523Z,5.17
2019-03-16T16:06:06.666Z,4.67
2019-03-16T16:08:38.635Z,4.57
2019-03-16T16:11:10.620Z,5.07
2019-03-16T16:13:43.710Z,5.03
2019-03-16T16:16:19.602Z,4.60
2019-03-16T16:18:51.604Z,4.40
2019-03-16T16:21:23.884Z,4.40
2019-03-16T16:23:55.815Z,4.00
2019-03-16T16:26:27.874Z,4.30
2019-03-16T16:29:02.565Z,4.13
2019-03-16T16:31:35.267Z,4.47
2019-03-16T16:34:07.223Z,5.90
2019-03-16T16:36:39.114Z,5.20
2019-03-16T16:39:14.261Z,5.00
2019-03-16T16:41:45.840Z,4.60
2019-03-16T16:44:17.855Z,4.83
2019-03-16T16:46:50.044Z,4.57
2019-03-16T16:49:21.639Z,4.77
2019-03-16T16:51:54.857Z,5.07
2019-03-16T16:54:27.286Z,4.80
2019-03-16T16:56:59.370Z,5.07
2019-03-16T16:59:31.941Z,5.10
2019-03-16T17:02:04.131Z,4.30
2019-03-16T17:04:44.019Z,4.83
2019-03-16T17:07:17.998Z,5.33
2019-03-16T17:09:51.072Z,4.63
2019-03-16T17:12:22.974Z,5.00
2019-03-16T17:14:55.915Z,4.60
2019-03-16T17:17:35.133Z,5.17
2019-03-16T17:20:01.789Z,5.97
2019-03-16T17:22:37.162Z,4.47
2019-03-16T17:25:08.573Z,4.63
2019-03-16T17:27:41.015Z,4.57
2019-03-16T17:30:16.193Z,4.23
2019-03-16T17:32:48.656Z,4.87
2019-03-16T17:35:21.617Z,5.10
2019-03-16T17:37:54.665Z,4.20
2019-03-16T17:40:26.918Z,4.90
2019-03-16T17:42:58.915Z,4.87
2019-03-16T17:45:31.615Z,4.47
2019-03-16T17:48:04.131Z,5.23
2019-03-16T17:50:37.225Z,4.73
2019-03-16T17:53:09.592Z,4.47
2019-03-16T17:55:41.543Z,5.47
2019-03-16T17:58:13.276Z,6.03
2019-03-16T18:00:52.327Z,5.63
2019-03-16T18:03:24.140Z,5.27
2019-03-16T18:05:56.591Z,6.90
2019-03-16T18:08:29.027Z,5.03
2019-03-16T18:11:01.320Z,5.50
2019-03-16T18:13:33.269Z,5.67
2019-03-16T18:16:05.286Z,5.20
2019-03-16T18:18:37.286Z,6.07
2019-03-16T18:21:09.767Z,4.90
2019-03-16T18:23:41.824Z,5.37
2019-03-16T18:26:14.277Z,5.17
2019-03-16T18:28:46.186Z,5.47
2019-03-16T18:31:18.257Z,7.33
2019-03-16T18:33:50.573Z,8.00
2019-03-16T18:36:23.124Z,10.10
2019-03-16T18:38:54.764Z,6.50
2019-03-16T18:41:28.179Z,6.37
2019-03-16T18:44:00.298Z,9.30
2019-03-16T18:46:32.605Z,6.23
2019-03-16T18:49:04.579Z,8.30
2019-03-16T18:51:36.913Z,7.00
2019-03-16T18:54:08.859Z,9.67
2019-03-16T18:56:40.847Z,7.53
2019-03-16T18:59:13.019Z,7.90
2019-03-16T19:01:44.874Z,5.43
2019-03-16T19:04:16.816Z,4.40
2019-03-16T19:06:48.968Z,8.40
2019-03-16T19:09:20.653Z,7.10
2019-03-16T19:11:53.122Z,6.57
2019-03-16T19:14:25.087Z,16.50
2019-03-16T19:16:57.232Z,21.87
2019-03-16T19:19:29.303Z,14.77
2019-03-16T19:22:01.618Z,10.20
2019-03-16T19:24:33.789Z,7.33
2019-03-16T19:27:06.684Z,5.53
2019-03-16T19:29:38.603Z,5.67
2019-03-16T19:32:10.560Z,7.77
2019-03-16T19:34:43.914Z,14.00
2019-03-16T19:37:15.919Z,9.40
2019-03-16T19:39:50.137Z,7.67
2019-03-16T19:42:22.315Z,8.70
2019-03-16T19:44:54.266Z,8.70
2019-03-16T19:47:26.780Z,6.50
2019-03-16T19:49:59.209Z,6.20
2019-03-16T19:52:31.824Z,6.30
2019-03-16T19:55:04.475Z,6.73
2019-03-16T19:57:36.728Z,9.23
2019-03-16T20:00:10.737Z,7.23
2019-03-16T20:02:50.326Z,8.37
2019-03-16T20:05:17.348Z,7.37
2019-03-16T20:07:49.578Z,7.47
2019-03-16T20:10:23.519Z,12.00
2019-03-16T20:12:55.832Z,10.63
2019-03-16T20:15:29.149Z,10.67
2019-03-16T20:18:01.531Z,13.17
2019-03-16T20:20:33.473Z,12.80
2019-03-16T20:23:05.281Z,49.53
2019-03-16T20:25:37.091Z,35.57
2019-03-16T20:28:09.244Z,23.03
2019-03-16T20:30:44.439Z,23.77
2019-03-16T20:33:16.437Z,12.37
2019-03-16T20:35:49.370Z,17.77
2019-03-16T20:38:21.772Z,16.97
2019-03-16T20:40:54.146Z,16.30
2019-03-16T20:43:26.460Z,13.40
2019-03-16T20:45:59.733Z,10.23
2019-03-16T20:48:32.012Z,8.87
2019-03-16T20:51:07.620Z,10.10
2019-03-16T20:53:39.357Z,12.47
2019-03-16T20:56:11.702Z,13.93
2019-03-16T20:58:43.541Z,16.50
2019-03-16T21:01:19.509Z,7.60
2019-03-16T21:03:52.414Z,16.33
2019-03-16T21:06:24.461Z,13.60
2019-03-16T21:09:02.948Z,10.97
2019-03-16T21:11:30.231Z,12.37
2019-03-16T21:14:02.982Z,10.93
2019-03-16T21:16:35.886Z,14.43
2019-03-16T21:19:08.152Z,9.60
2019-03-16T21:21:40.127Z,11.63
2019-03-16T21:24:12.554Z,8.47
2019-03-16T21:26:52.280Z,9.27
2019-03-16T21:29:18.542Z,8.80
2019-03-16T21:31:53.177Z,6.27
2019-03-16T21:34:25.128Z,7.00
2019-03-16T21:36:58.974Z,10.97
2019-03-16T21:39:31.448Z,9.07
2019-03-16T21:42:03.480Z,8.40
2019-03-16T21:44:35.415Z,12.33
2019-03-16T21:47:07.684Z,12.50
2019-03-16T21:49:39.508Z,12.00
2019-03-16T21:52:11.302Z,9.73
2019-03-16T21:54:43.197Z,11.67
2019-03-16T21:57:15.393Z,11.27
2019-03-16T21:59:48.174Z,9.00
2019-03-16T22:02:20.983Z,12.27
2019-03-16T22:04:52.986Z,10.73
2019-03-16T22:07:25.066Z,9.90
2019-03-16T22:09:56.975Z,8.37
2019-03-16T22:12:29.544Z,11.57
2019-03-16T22:15:01.916Z,11.27
2019-03-16T22:17:34.078Z,9.03
2019-03-16T22:20:06.917Z,10.50
2019-03-16T22:22:42.537Z,10.70
2019-03-16T22:25:15.149Z,7.13
2019-03-16T22:27:47.417Z,8.60
2019-03-16T22:30:19.317Z,12.27
2019-03-16T22:32:53.852Z,10.93
2019-03-16T22:35:25.982Z,11.50
2019-03-16T22:37:57.727Z,12.10
2019-03-16T22:40:29.428Z,13.47
2019-03-16T22:43:01.284Z,9.00
2019-03-16T22:45:33.045Z,8.80
2019-03-16T22:48:04.761Z,9.40
2019-03-16T22:50:36.658Z,9.93
2019-03-16T22:53:25.864Z,7.50
2019-03-16T22:55:57.570Z,6.80
2019-03-16T22:58:29.327Z,6.00
2019-03-16T23:01:01.359Z,6.50
2019-03-16T23:03:33.332Z,6.63
2019-03-16T23:06:05.247Z,8.43
2019-03-16T23:08:37.680Z,7.83
2019-03-16T23:11:09.718Z,6.53
2019-03-16T23:13:41.403Z,7.20
2019-03-16T23:16:12.952Z,7.20
2019-03-16T23:18:45.271Z,6.27
2019-03-16T23:21:17.342Z,5.03
2019-03-16T23:23:49.092Z,4.97
2019-03-16T23:26:20.883Z,4.87
2019-03-16T23:28:52.740Z,4.43
2019-03-16T23:31:24.522Z,4.33
2019-03-16T23:33:56.429Z,4.30
2019-03-16T23:36:28.198Z,5.37
2019-03-16T23:39:02.263Z,6.70
2019-03-16T23:41:33.412Z,6.27
2019-03-16T23:44:05.167Z,5.10
2019-03-16T23:46:36.677Z,4.60
2019-03-16T23:49:11.272Z,5.57
2019-03-16T23:51:43.058Z,5.70
2019-03-16T23:54:17.728Z,6.03
2019-03-16T23:56:49.462Z,9.97
2019-03-16T23:59:21.171Z,8.30
